Time;durP1;ratioP1;P1;durP2;ratioP2;P2;SDS_P1;SDS_P2;PMS_P1;PMS_P2;Temp;Humidity;BMP_temperature;BMP_pressure;BME280_temperature;BME280_humidity;BME280_pressure;Samples;Min_cycle;Max_cycle;Signal;HPM_P1;HPM_P2
2020/12/14 00:02:29;;;;;;;17.73;9.68;;;;;;;-3.29;100.00;100771.23;1766697;80;21103;-57
2020/12/14 00:04:57;;;;;;;15.15;8.15;;;;;;;-3.29;100.00;100772.05;1764404;80;21116;-57
2020/12/14 00:07:26;;;;;;;16.50;8.30;;;;;;;-3.29;100.00;100765.68;1766218;79;21155;-57
2020/12/14 00:09:58;;;;;;;17.05;8.15;;;;;;;-3.29;100.00;100775.06;1766185;80;21198;-57
2020/12/14 00:12:26;;;;;;;18.48;8.88;;;;;;;-3.29;100.00;100769.96;1758833;80;21041;-57
2020/12/14 00:14:54;;;;;;;17.60;7.35;;;;;;;-3.30;100.00;100766.56;1766081;80;21009;-57
2020/12/14 00:17:22;;;;;;;19.55;8.73;;;;;;;-3.30;100.00;100775.48;1761166;80;20945;-58
2020/12/14 00:19:51;;;;;;;15.68;7.40;;;;;;;-3.30;100.00;100771.66;1764800;80;21108;-58
2020/12/14 00:22:19;;;;;;;17.30;8.00;;;;;;;-3.30;100.00;100768.30;1761719;80;21274;-58
2020/12/14 00:24:48;;;;;;;15.50;7.95;;;;;;;-3.33;100.00;100772.27;1763580;80;21208;-57
2020/12/14 00:27:16;;;;;;;15.65;7.08;;;;;;;-3.33;100.00;100778.22;1766398;80;21176;-58
2020/12/14 00:29:44;;;;;;;17.70;8.43;;;;;;;-3.33;100.00;100770.58;1763379;79;21270;-58
2020/12/14 00:32:12;;;;;;;15.35;7.50;;;;;;;-3.34;100.00;100764.27;1765575;80;21175;-59
2020/12/14 00:34:40;;;;;;;18.65;8.15;;;;;;;-3.35;100.00;100768.55;1765022;79;21213;-58
2020/12/14 00:37:09;;;;;;;17.40;8.68;;;;;;;-3.35;100.00;100780.02;1765509;80;20982;-56
2020/12/14 00:39:38;;;;;;;17.85;8.48;;;;;;;-3.35;100.00;100773.64;1763051;80;20994;-57
2020/12/14 00:42:07;;;;;;;19.32;8.65;;;;;;;-3.36;100.00;100774.55;1763726;80;21073;-57
2020/12/14 00:44:35;;;;;;;19.57;7.70;;;;;;;-3.36;100.00;100765.63;1763336;80;21127;-58
2020/12/14 00:47:03;;;;;;;15.72;7.47;;;;;;;-3.35;100.00;100766.45;1762824;80;21206;-58
2020/12/14 00:49:31;;;;;;;17.35;8.88;;;;;;;-3.36;100.00;100775.83;1765432;79;20990;-58
2020/12/14 00:52:06;;;;;;;18.73;9.35;;;;;;;-3.35;100.00;100769.81;1764245;80;21046;-58
2020/12/14 00:54:34;;;;;;;21.70;8.50;;;;;;;-3.35;100.00;100757.08;1764604;80;21077;-58
2020/12/14 00:57:03;;;;;;;17.87;9.00;;;;;;;-3.34;100.00;100760.44;1763247;80;21068;-56
2020/12/14 00:59:31;;;;;;;15.90;9.30;;;;;;;-3.35;100.00;100746.88;1768605;79;21329;-58
2020/12/14 01:01:59;;;;;;;20.15;8.90;;;;;;;-3.37;100.00;100750.41;1760337;80;21045;-58
2020/12/14 01:04:27;;;;;;;15.38;7.90;;;;;;;-3.37;100.00;100753.80;1761932;80;21105;-56
2020/12/14 01:06:55;;;;;;;18.85;8.50;;;;;;;-3.38;100.00;100757.23;1765492;80;20926;-57
2020/12/14 01:09:24;;;;;;;17.05;7.87;;;;;;;-3.39;100.00;100747.95;1766945;80;20958;-57
2020/12/14 01:11:52;;;;;;;16.27;7.45;;;;;;;-3.40;100.00;100753.14;1764735;80;21264;-56
2020/12/14 01:14:20;;;;;;;18.17;8.03;;;;;;;-3.41;100.00;100747.19;1764438;80;20973;-58
2020/12/14 01:16:48;;;;;;;18.65;9.13;;;;;;;-3.40;100.00;100746.77;1765906;80;21022;-58
2020/12/14 01:19:16;;;;;;;21.07;9.23;;;;;;;-3.40;100.00;100739.94;1766770;80;21061;-60
2020/12/14 01:21:45;;;;;;;18.67;8.95;;;;;;;-3.39;100.00;100750.50;1764632;80;21113;-59
2020/12/14 01:24:12;;;;;;;14.40;7.55;;;;;;;-3.40;100.00;100753.95;1766252;80;21276;-58
2020/12/14 01:26:41;;;;;;;21.70;8.58;;;;;;;-3.41;100.00;100748.47;1766316;80;21025;-57
2020/12/14 01:29:09;;;;;;;18.30;8.33;;;;;;;-3.40;100.00;100750.59;1765650;80;21171;-58
2020/12/14 01:31:37;;;;;;;19.25;9.05;;;;;;;-3.41;100.00;100751.02;1768071;80;20975;-58
2020/12/14 01:34:05;;;;;;;22.00;8.65;;;;;;;-3.40;100.00;100746.77;1765304;80;20971;-59
2020/12/14 01:36:33;;;;;;;17.62;8.03;;;;;;;-3.42;100.00;100746.38;1765999;80;21248;-57
2020/12/14 01:39:02;;;;;;;19.57;8.28;;;;;;;-3.42;100.00;100760.84;1768890;80;20974;-57
2020/12/14 01:41:30;;;;;;;18.95;8.05;;;;;;;-3.44;100.00;100735.91;1766845;80;21045;-57
2020/12/14 01:43:58;;;;;;;17.32;8.23;;;;;;;-3.44;100.00;100732.09;1764513;80;20977;-57
2020/12/14 01:46:30;;;;;;;23.60;8.60;;;;;;;-3.46;100.00;100718.59;1765455;80;21095;-56
2020/12/14 01:49:02;;;;;;;17.95;8.83;;;;;;;-3.45;100.00;100726.17;1762390;79;21203;-58
2020/12/14 01:51:30;;;;;;;;;;;;;;;-3.46;100.00;100722.41;1767478;80;21026;-58
2020/12/14 01:53:59;;;;;;;15.68;7.87;;;;;;;-3.49;100.00;100716.20;1768654;80;20135;-57
2020/12/14 01:56:28;;;;;;;19.62;9.50;;;;;;;-3.51;100.00;100726.48;1763906;80;21012;-59
2020/12/14 01:58:56;;;;;;;18.23;8.25;;;;;;;-3.52;100.00;100701.91;1762687;80;21177;-58
2020/12/14 02:01:24;;;;;;;19.73;8.78;;;;;;;-3.51;100.00;100715.47;1764639;80;21245;-58
2020/12/14 02:03:56;;;;;;;18.62;9.20;;;;;;;-3.51;100.00;100701.00;1762703;79;21046;-60
2020/12/14 02:06:24;;;;;;;18.52;8.08;;;;;;;-3.50;100.00;100691.63;1762627;80;20971;-58
2020/12/14 02:08:52;;;;;;;15.55;7.40;;;;;;;-3.49;100.00;100706.82;1761009;80;20997;-58
2020/12/14 02:11:20;;;;;;;19.12;8.70;;;;;;;-3.48;100.00;100707.67;1761650;80;21054;-56
2020/12/14 02:13:48;;;;;;;15.72;8.40;;;;;;;-3.48;100.00;100701.30;1766834;80;21214;-59
2020/12/14 02:16:17;;;;;;;16.67;8.78;;;;;;;-3.47;100.00;100689.73;1765787;80;21184;-56
2020/12/14 02:18:46;;;;;;;16.25;8.98;;;;;;;-3.46;100.00;100690.55;1762037;80;21102;-56
2020/12/14 02:21:16;;;;;;;19.30;10.28;;;;;;;-3.43;100.00;100702.69;1766697;80;21168;-55
2020/12/14 02:23:45;;;;;;;18.62;8.63;;;;;;;-3.34;100.00;100701.81;1765231;79;20990;-55
2020/12/14 02:26:14;;;;;;;17.55;8.40;;;;;;;-3.32;100.00;100697.02;1766330;80;21313;-56
2020/12/14 02:28:41;;;;;;;20.08;9.50;;;;;;;-3.34;100.00;100700.08;1762469;79;20981;-56
2020/12/14 02:31:10;;;;;;;16.30;8.00;;;;;;;-3.39;100.00;100693.60;1766633;80;21040;-57
2020/12/14 02:33:38;;;;;;;26.82;8.40;;;;;;;-3.44;100.00;100698.95;1759927;80;21105;-56
2020/12/14 02:36:06;;;;;;;16.30;8.20;;;;;;;-3.48;100.00;100712.31;1767042;80;21150;-56
2020/12/14 02:38:34;;;;;;;18.65;7.28;;;;;;;-3.50;100.00;100717.11;1764008;80;21344;-57
2020/12/14 02:41:02;;;;;;;17.23;8.20;;;;;;;-3.55;100.00;100710.17;1760824;80;21161;-59
2020/12/14 02:43:30;;;;;;;19.62;8.28;;;;;;;-3.60;100.00;100705.30;1767479;79;21018;-57
2020/12/14 02:45:58;;;;;;;16.42;8.38;;;;;;;-3.63;100.00;100698.30;1765322;80;20982;-56
2020/12/14 02:48:26;;;;;;;13.85;7.22;;;;;;;-3.64;100.00;100689.80;1765029;80;21286;-57
2020/12/14 02:50:55;;;;;;;15.60;6.97;;;;;;;-3.64;100.00;100696.62;1767683;80;21246;-59
2020/12/14 02:53:23;;;;;;;18.85;8.70;;;;;;;-3.65;100.00;100712.38;1766030;80;20986;-55
2020/12/14 02:55:51;;;;;;;16.40;8.60;;;;;;;-3.64;100.00;100722.11;1758968;80;21062;-59
2020/12/14 02:58:19;;;;;;;21.40;8.28;;;;;;;-3.66;100.00;100710.73;1765793;80;21167;-56
2020/12/14 03:00:47;;;;;;;17.82;8.25;;;;;;;-3.66;100.00;100708.19;1764636;80;21053;-59
2020/12/14 03:03:15;;;;;;;19.92;8.15;;;;;;;-3.65;100.00;100717.92;1758817;79;21446;-57
2020/12/14 03:05:43;;;;;;;19.57;7.60;;;;;;;-3.66;100.00;100704.37;1764442;80;21191;-55
2020/12/14 03:08:11;;;;;;;21.87;9.55;;;;;;;-3.67;100.00;100720.11;1768088;79;21113;-59
2020/12/14 03:10:40;;;;;;;19.57;8.68;;;;;;;-3.65;100.00;100705.19;1764771;80;21077;-59
2020/12/14 03:13:08;;;;;;;15.75;8.38;;;;;;;-3.65;100.00;100714.10;1760948;80;21151;-59
2020/12/14 03:15:37;;;;;;;17.12;8.10;;;;;;;-3.65;100.00;100717.92;1763704;80;21201;-56
2020/12/14 03:18:06;;;;;;;19.30;8.78;;;;;;;-3.67;100.00;100713.73;1757339;80;21093;-58
2020/12/14 03:20:35;;;;;;;19.90;8.15;;;;;;;-3.67;100.00;100712.92;1764970;80;21109;-56
2020/12/14 03:23:03;;;;;;;19.10;8.65;;;;;;;-3.69;100.00;100715.98;1765188;80;21401;-56
2020/12/14 03:25:31;;;;;;;18.50;8.55;;;;;;;-3.69;100.00;100719.81;1763767;80;21136;-56
2020/12/14 03:27:59;;;;;;;24.63;8.83;;;;;;;-3.69;100.00;100727.45;1767008;79;21152;-59
2020/12/14 03:30:28;;;;;;;18.15;7.85;;;;;;;-3.70;100.00;100714.34;1758686;80;21616;-56
2020/12/14 03:32:56;;;;;;;16.95;7.70;;;;;;;-3.71;100.00;100708.44;1762952;80;21096;-55
2020/12/14 03:35:24;;;;;;;19.27;8.23;;;;;;;-3.73;100.00;100714.05;1762697;80;21147;-58
2020/12/14 03:37:52;;;;;;;21.95;9.93;;;;;;;-3.71;100.00;100714.80;1764796;79;21125;-60
2020/12/14 03:40:21;;;;;;;18.50;8.45;;;;;;;-3.71;100.00;100703.34;1761880;80;21265;-56
2020/12/14 03:42:49;;;;;;;20.82;9.68;;;;;;;-3.69;100.00;100708.34;1767192;80;21100;-56
2020/12/14 03:45:17;;;;;;;19.32;7.97;;;;;;;-3.69;100.00;100707.06;1764422;80;21176;-56
2020/12/14 03:47:46;;;;;;;18.42;9.15;;;;;;;-3.69;100.00;100694.33;1766068;80;21025;-60
2020/12/14 03:50:14;;;;;;;27.80;9.28;;;;;;;-3.69;100.00;100707.06;1765029;80;21164;-61
2020/12/14 03:52:42;;;;;;;17.85;8.88;;;;;;;-3.70;100.00;100679.50;1763823;80;21387;-59
2020/12/14 03:55:10;;;;;;;17.42;8.18;;;;;;;-3.71;100.00;100688.05;1763755;80;21156;-58
2020/12/14 03:57:38;;;;;;;15.83;8.25;;;;;;;-3.71;100.00;100694.42;1758338;79;21002;-59
2020/12/14 04:00:06;;;;;;;17.95;8.90;;;;;;;-3.71;100.00;100702.06;1762285;80;21041;-56
2020/12/14 04:02:36;;;;;;;19.17;8.35;;;;;;;-3.73;100.00;100700.49;1762444;80;21026;-56
2020/12/14 04:05:04;;;;;;;20.10;9.10;;;;;;;-3.73;100.00;100707.68;1768997;80;21211;-56
2020/12/14 04:07:32;;;;;;;19.48;8.83;;;;;;;-3.73;100.00;100699.22;1764876;79;21531;-56
2020/12/14 04:10:01;;;;;;;19.30;8.05;;;;;;;-3.72;100.00;100700.40;1764538;80;21066;-56
2020/12/14 04:12:29;;;;;;;17.35;8.40;;;;;;;-3.72;100.00;100676.20;1763835;79;21139;-57
2020/12/14 04:14:58;;;;;;;17.82;7.97;;;;;;;-3.71;100.00;100677.05;1766803;80;21160;-58
2020/12/14 04:27:16;;;;;;;20.03;9.00;;;;;;;-3.64;100.00;100677.52;1859691;76;22680;-56
2020/12/14 04:29:45;;;;;;;18.02;8.70;;;;;;;-3.69;100.00;100668.41;1820410;77;20930;-56
2020/12/14 04:32:13;;;;;;;16.37;7.70;;;;;;;-3.67;100.00;100700.18;1821315;78;21194;-58
2020/12/14 04:34:41;;;;;;;20.68;9.33;;;;;;;-3.67;100.00;100701.00;1826784;77;21014;-58
2020/12/14 04:37:09;;;;;;;17.07;8.65;;;;;;;-3.67;100.00;100708.64;1819815;77;21019;-56
2020/12/14 04:39:37;;;;;;;16.73;8.58;;;;;;;-3.66;100.00;100705.64;1820247;77;20946;-60
2020/12/14 04:42:05;;;;;;;16.73;8.50;;;;;;;-3.65;100.00;100712.83;1820692;78;20937;-58
2020/12/14 04:44:33;;;;;;;17.25;8.58;;;;;;;-3.65;100.00;100728.11;1819201;77;21141;-57
2020/12/14 04:47:02;;;;;;;18.95;9.13;;;;;;;-3.66;100.00;100727.30;1820667;77;20950;-58
2020/12/14 04:49:32;;;;;;;18.50;8.25;;;;;;;-3.64;100.00;100729.30;1821871;77;21353;-60
2020/12/14 04:52:01;;;;;;;17.23;8.60;;;;;;;-3.62;100.00;100727.95;1815630;77;21172;-58
2020/12/14 04:54:29;;;;;;;19.57;8.90;;;;;;;-3.59;100.00;100715.06;1827462;77;21045;-59
2020/12/14 04:56:56;;;;;;;17.30;8.13;;;;;;;-3.58;100.00;100717.97;1822383;77;21190;-56
2020/12/14 04:59:25;;;;;;;17.57;8.58;;;;;;;-3.59;100.00;100725.25;1795290;78;21083;-57
2020/12/14 05:01:57;;;;;;;20.52;8.98;;;;;;;-3.59;100.00;100720.98;1824444;77;21116;-55
2020/12/14 05:04:25;;;;;;;19.85;8.70;;;;;;;-3.59;100.00;100727.34;1766019;78;21057;-56
2020/12/14 05:06:54;;;;;;;22.17;10.70;;;;;;;-3.60;100.00;100730.78;1820486;77;21037;-55
2020/12/14 05:12:01;;;;;;;17.83;8.27;;;;;;;-3.52;100.00;100729.13;1783894;79;22282;-55
2020/12/14 05:14:30;;;;;;;20.68;9.58;;;;;;;-3.57;100.00;100733.17;1752452;81;21024;-58
2020/12/14 05:16:58;;;;;;;22.10;9.23;;;;;;;-3.56;100.00;100724.64;1752562;81;21214;-58
2020/12/14 05:19:28;;;;;;;21.40;8.13;;;;;;;-3.55;100.00;100716.55;1744086;81;21045;-58
2020/12/14 05:24:35;;;;;;;17.17;8.00;;;;;;;-3.48;100.00;100717.41;1813932;76;22754;-55
2020/12/14 05:27:03;;;;;;;20.90;9.23;;;;;;;-3.53;100.00;100724.91;1782402;80;20959;-56
2020/12/14 05:29:31;;;;;;;22.73;10.18;;;;;;;-3.52;100.00;100710.02;1783088;79;21442;-58
2020/12/14 05:32:10;;;;;;;19.60;9.08;;;;;;;-3.51;100.00;100702.73;1781947;80;21012;-59
2020/12/14 05:34:41;;;;;;;20.10;9.90;;;;;;;-3.51;100.00;100694.63;1774531;80;21029;-59
2020/12/14 05:37:13;;;;;;;19.45;8.85;;;;;;;-3.49;100.00;100700.91;1776426;80;21079;-55
2020/12/14 05:39:41;;;;;;;;;;;;;;;-3.48;100.00;100693.66;1784934;79;21001;-58
2020/12/14 05:42:17;;;;;;;18.30;9.70;;;;;;;-3.47;100.00;100694.02;1782070;80;21192;-57
2020/12/14 05:44:48;;;;;;;20.80;9.48;;;;;;;-3.46;100.00;100701.56;1782222;79;20978;-56
2020/12/14 05:47:29;;;;;;;18.17;10.00;;;;;;;-3.46;100.00;100705.84;1783709;80;20970;-58
2020/12/14 05:50:00;;;;;;;19.85;10.23;;;;;;;-3.43;100.00;100716.70;1783629;80;20984;-57
2020/12/14 05:52:32;;;;;;;20.02;9.83;;;;;;;-3.35;100.00;100709.92;1783386;79;21155;-59
2020/12/14 05:55:02;;;;;;;18.30;7.60;;;;;;;-3.27;100.00;100715.88;1783543;80;21261;-56
2020/12/14 05:57:34;;;;;;;16.95;8.73;;;;;;;-3.25;100.00;100719.17;1782851;80;21010;-57
2020/12/14 06:00:08;;;;;;;19.37;9.13;;;;;;;-3.28;100.00;100724.44;1783678;80;21129;-60
2020/12/14 06:02:36;;;;;;;15.40;9.13;;;;;;;-3.32;100.00;100723.78;1780242;79;21160;-56
2020/12/14 06:05:06;;;;;;;18.25;8.73;;;;;;;-3.36;100.00;100737.59;1779275;80;21116;-59
2020/12/14 06:07:34;;;;;;;17.92;8.15;;;;;;;-3.36;100.00;100732.95;1775853;80;21190;-58
2020/12/14 06:10:14;;;;;;;15.20;8.60;;;;;;;-3.36;100.00;100744.42;1782677;80;21006;-55
2020/12/14 06:12:47;;;;;;;19.25;8.90;;;;;;;-3.35;100.00;100721.39;1783890;80;21528;-54
2020/12/14 06:15:17;;;;;;;17.85;9.70;;;;;;;-3.33;100.00;100741.26;1783607;80;21492;-54
2020/12/14 06:17:45;;;;;;;17.50;9.05;;;;;;;-3.29;100.00;100738.09;1782840;79;21085;-56
2020/12/14 06:20:17;;;;;;;16.52;8.08;;;;;;;-3.25;100.00;100743.39;1778263;80;21360;-56
2020/12/14 06:22:51;;;;;;;15.73;8.70;;;;;;;-3.21;100.00;100766.09;1778031;80;21193;-57
2020/12/14 06:25:23;;;;;;;20.23;8.95;;;;;;;-3.21;100.00;100745.69;1783728;80;21379;-55
2020/12/14 06:27:51;;;;;;;17.10;9.68;;;;;;;-3.21;100.00;100751.25;1747393;79;21293;-57
2020/12/14 06:30:35;;;;;;;19.77;9.73;;;;;;;-3.20;100.00;100743.50;1783375;80;21053;-56
2020/12/14 06:33:08;;;;;;;17.25;9.48;;;;;;;-3.19;100.00;100757.89;1782796;80;21187;-56
2020/12/14 06:35:53;;;;;;;21.02;10.25;;;;;;;-3.16;100.00;100749.72;1777746;80;21026;-57
2020/12/14 06:38:36;;;;;;;18.20;10.03;;;;;;;-3.13;100.00;100747.83;1746717;79;21090;-56
2020/12/14 06:41:20;;;;;;;21.85;9.93;;;;;;;-3.09;100.00;100753.58;1782867;80;20956;-60
2020/12/14 06:43:51;;;;;;;28.20;15.83;;;;;;;-3.05;100.00;100748.69;1782173;80;20980;-56
2020/12/14 06:46:26;;;;;;;36.35;19.85;;;;;;;-3.04;100.00;100743.95;1778157;80;21205;-55
2020/12/14 06:48:54;;;;;;;52.60;28.00;;;;;;;-3.04;100.00;100749.05;1771442;79;20940;-59
2020/12/14 06:51:23;;;;;;;73.35;38.15;;;;;;;-3.03;100.00;100751.95;1778218;80;21155;-60
2020/12/14 06:53:55;;;;;;;30.85;17.45;;;;;;;-3.04;100.00;100754.96;1779519;79;21094;-57
2020/12/14 06:56:34;;;;;;;33.30;17.98;;;;;;;-3.04;100.00;100752.41;1775465;78;21118;-56
2020/12/14 06:59:02;;;;;;;20.52;10.93;;;;;;;-3.02;100.00;100753.62;1776033;80;21195;-57
2020/12/14 07:01:38;;;;;;;56.60;26.50;;;;;;;-3.02;100.00;100760.81;1782866;80;21057;-56
2020/12/14 07:04:32;;;;;;;31.73;15.75;;;;;;;-3.01;100.00;100759.09;1781899;80;21237;-56
2020/12/14 07:07:15;;;;;;;21.80;11.10;;;;;;;-3.01;100.00;100764.19;1775712;80;21055;-56
2020/12/14 07:09:43;;;;;;;21.93;10.70;;;;;;;-3.02;100.00;100762.09;1781804;79;21101;-55
2020/12/14 07:12:17;;;;;;;21.33;10.40;;;;;;;-3.01;100.00;100761.18;1774980;80;21182;-55
2020/12/14 07:14:50;;;;;;;18.95;9.55;;;;;;;-2.97;100.00;100773.31;1779379;78;21126;-56
2020/12/14 07:17:22;;;;;;;18.15;10.13;;;;;;;-2.95;100.00;100765.95;1781671;79;21055;-56
2020/12/14 07:19:56;;;;;;;20.85;9.65;;;;;;;-2.92;100.00;100776.42;1781757;79;21564;-56
2020/12/14 07:22:27;;;;;;;19.37;10.72;;;;;;;-2.87;100.00;100781.30;1778937;80;21124;-56
2020/12/14 07:25:03;;;;;;;24.57;13.03;;;;;;;-2.87;100.00;100773.19;1780031;80;22086;-56
2020/12/14 07:27:33;;;;;;;31.95;17.12;;;;;;;-2.85;100.00;100771.36;1783225;79;21046;-56
2020/12/14 07:30:11;;;;;;;27.17;12.70;;;;;;;-2.82;100.00;100772.47;1782984;80;21158;-55
2020/12/14 07:32:40;;;;;;;19.77;10.78;;;;;;;-2.79;100.00;100771.03;1783288;79;21288;-55
2020/12/14 07:35:09;;;;;;;18.32;10.60;;;;;;;-2.78;100.00;100765.02;1778450;79;20999;-57
2020/12/14 07:37:37;;;;;;;20.45;11.88;;;;;;;-2.77;100.00;100767.92;1752276;79;21382;-56
2020/12/14 07:40:09;;;;;;;21.20;12.90;;;;;;;-2.75;100.00;100767.41;1782693;80;21057;-56
2020/12/14 07:42:43;;;;;;;21.77;11.88;;;;;;;-2.72;100.00;100765.97;1783054;80;21217;-56
2020/12/14 07:45:14;;;;;;;;;;;;;;;-2.68;100.00;100754.31;1785154;80;21189;-55
2020/12/14 07:47:42;;;;;;;17.17;9.78;;;;;;;-2.63;100.00;100772.73;1782940;80;20138;-55
2020/12/14 07:50:16;;;;;;;17.77;10.15;;;;;;;-2.59;100.00;100766.55;1782760;80;21454;-55
2020/12/14 07:52:49;;;;;;;17.65;11.28;;;;;;;-2.60;100.00;100759.34;1781751;80;21126;-56
2020/12/14 07:55:18;;;;;;;27.45;17.00;;;;;;;-2.56;100.00;100757.45;1781456;78;21176;-56
2020/12/14 07:57:47;;;;;;;26.73;14.80;;;;;;;-2.53;100.00;100766.22;1782171;80;21067;-55
2020/12/14 08:00:25;;;;;;;22.25;13.58;;;;;;;-2.51;100.00;100775.41;1782578;80;21047;-56
2020/12/14 08:03:05;;;;;;;22.13;11.73;;;;;;;-2.50;100.00;100785.16;1783825;79;21251;-56
2020/12/14 08:05:24;;;;;;;21.35;12.47;;;;;;;-2.51;100.00;100772.86;1774404;80;21130;-56
2020/12/14 08:08:04;;;;;;;23.98;13.72;;;;;;;-2.51;100.00;100772.03;1781959;80;21118;-55
2020/12/14 08:10:35;;;;;;;18.25;10.48;;;;;;;-2.50;100.00;100779.63;1773891;80;21001;-56
2020/12/14 08:13:10;;;;;;;19.90;10.80;;;;;;;-2.48;100.00;100761.66;1779499;79;21171;-56
2020/12/14 08:15:42;;;;;;;31.35;14.58;;;;;;;-2.46;100.00;100753.02;1745337;80;22367;-56
2020/12/14 08:18:13;;;;;;;20.65;11.50;;;;;;;-2.43;100.00;100764.77;1782469;79;21034;-56
2020/12/14 08:20:42;;;;;;;20.50;9.78;;;;;;;-2.42;100.00;100744.73;1783514;80;21235;-57
2020/12/14 08:23:22;;;;;;;18.62;11.53;;;;;;;-2.41;100.00;100732.33;1782714;80;21192;-58
2020/12/14 08:25:52;;;;;;;17.50;10.40;;;;;;;-2.37;100.00;100740.17;1782828;80;21010;-57
2020/12/14 08:28:31;;;;;;;20.68;11.00;;;;;;;-2.35;100.00;100736.24;1782828;80;21214;-56
2020/12/14 08:30:59;;;;;;;43.42;18.37;;;;;;;-2.33;100.00;100730.15;1782713;80;21197;-57
2020/12/14 08:33:28;;;;;;;18.80;11.10;;;;;;;-2.31;100.00;100730.89;1783589;80;21097;-56
2020/12/14 08:35:57;;;;;;;19.42;10.65;;;;;;;-2.26;100.00;100739.56;1774734;79;21134;-57
2020/12/14 08:38:29;;;;;;;57.70;22.42;;;;;;;-2.26;100.00;100741.66;1778991;79;21176;-57
2020/12/14 08:41:03;;;;;;;106.05;49.88;;;;;;;-2.25;100.00;100739.45;1780068;80;21362;-57
2020/12/14 08:43:35;;;;;;;29.52;17.48;;;;;;;-2.22;100.00;100728.25;1782913;79;21047;-57
2020/12/14 08:46:09;;;;;;;20.25;11.63;;;;;;;-2.21;100.00;100735.81;1776546;80;21107;-57
2020/12/14 08:48:53;;;;;;;23.07;12.90;;;;;;;-2.19;100.00;100732.37;1781780;79;21069;-57
2020/12/14 08:51:31;;;;;;;22.60;12.45;;;;;;;-2.17;100.00;100727.52;1780739;80;21175;-57
2020/12/14 08:54:14;;;;;;;16.65;9.38;;;;;;;-2.15;100.00;100719.33;1774289;79;21239;-57
2020/12/14 08:56:42;;;;;;;18.50;10.95;;;;;;;-2.12;100.00;100717.88;1783175;79;20967;-56
2020/12/14 08:59:21;;;;;;;24.47;13.18;;;;;;;-2.09;100.00;100714.30;1782484;79;21016;-56
2020/12/14 09:02:00;;;;;;;24.77;12.78;;;;;;;-2.07;100.00;100719.69;1782871;79;21149;-57
2020/12/14 09:04:39;;;;;;;17.92;12.30;;;;;;;-2.06;100.00;100721.78;1782212;79;21130;-56
2020/12/14 09:07:07;;;;;;;36.68;16.45;;;;;;;-2.07;100.00;100714.58;1782781;80;21438;-57
2020/12/14 09:09:38;;;;;;;20.77;12.03;;;;;;;-2.06;100.00;100707.73;1782309;80;21116;-57
2020/12/14 09:12:11;;;;;;;24.20;14.78;;;;;;;-2.07;100.00;100705.64;1782555;80;21097;-57
2020/12/14 09:14:39;;;;;;;25.57;14.60;;;;;;;-2.05;100.00;100705.08;1780907;79;21054;-57
2020/12/14 09:17:18;;;;;;;21.35;14.18;;;;;;;-2.03;100.00;100712.67;1781420;79;20954;-57
2020/12/14 09:19:51;;;;;;;23.50;14.50;;;;;;;-2.04;100.00;100703.38;1783045;79;21551;-59
2020/12/14 09:22:22;;;;;;;24.23;15.65;;;;;;;-2.04;100.00;100704.19;1779017;80;21145;-58
2020/12/14 09:24:50;;;;;;;21.12;13.13;;;;;;;-2.02;100.00;100703.62;1779911;80;21405;-58
2020/12/14 09:27:18;;;;;;;18.77;11.50;;;;;;;-2.01;100.00;100712.11;1782619;79;20987;-57
2020/12/14 09:29:46;;;;;;;17.10;10.32;;;;;;;-2.01;100.00;100705.72;1781920;79;20961;-57
2020/12/14 09:32:15;;;;;;;17.80;11.35;;;;;;;-2.02;100.00;100702.81;1782132;79;21207;-57
2020/12/14 09:34:43;;;;;;;18.00;11.50;;;;;;;-2.02;100.00;100705.36;1782432;79;20998;-57
2020/12/14 09:37:12;;;;;;;22.05;12.98;;;;;;;-2.00;100.00;100697.16;1783110;80;21063;-57
2020/12/14 09:39:41;;;;;;;22.95;13.85;;;;;;;-1.99;100.00;100702.63;1779293;80;21157;-57
2020/12/14 09:42:09;;;;;;;21.85;14.07;;;;;;;-1.98;100.00;100691.49;1783088;80;21140;-57
2020/12/14 09:44:37;;;;;;;24.40;15.45;;;;;;;-1.97;100.00;100690.14;1778523;79;23529;-57
2020/12/14 09:47:05;;;;;;;23.57;13.83;;;;;;;-1.95;100.00;100686.20;1782231;80;21185;-58
2020/12/14 09:49:33;;;;;;;25.50;14.80;;;;;;;-1.94;100.00;100684.47;1782126;79;21220;-56
2020/12/14 09:52:02;;;;;;;23.83;14.63;;;;;;;-1.94;100.00;100684.01;1781096;79;21016;-58
2020/12/14 09:54:30;;;;;;;19.95;11.33;;;;;;;-1.93;100.00;100672.89;1778561;79;21174;-58
2020/12/14 09:56:58;;;;;;;19.85;12.15;;;;;;;-1.90;100.00;100680.81;1782500;80;21169;-57
2020/12/14 09:59:26;;;;;;;21.75;12.28;;;;;;;-1.90;100.00;100689.30;1777603;80;21453;-55
2020/12/14 10:01:55;;;;;;;22.45;12.05;;;;;;;-1.88;100.00;100693.05;1780915;80;21165;-56
2020/12/14 10:04:23;;;;;;;21.90;11.45;;;;;;;-1.89;100.00;100683.30;1781981;79;20960;-55
2020/12/14 10:06:51;;;;;;;20.20;11.55;;;;;;;-1.88;100.00;100682.38;1782116;80;21181;-56
2020/12/14 10:09:20;;;;;;;21.37;12.82;;;;;;;-1.85;100.00;100685.20;1782427;79;21154;-57
2020/12/14 10:11:48;;;;;;;18.48;11.65;;;;;;;-1.86;100.00;100671.59;1782477;79;21051;-57
2020/12/14 10:14:16;;;;;;;23.20;13.78;;;;;;;-1.84;100.00;100677.44;1778305;79;21224;-58
2020/12/14 10:16:49;;;;;;;24.35;14.10;;;;;;;-1.85;100.00;100668.14;1774831;80;21000;-56
2020/12/14 10:19:18;;;;;;;21.45;13.40;;;;;;;-1.82;100.00;100678.61;1779148;79;20960;-57
2020/12/14 10:21:46;;;;;;;22.50;13.70;;;;;;;-1.80;100.00;100681.45;1776818;80;21165;-57
2020/12/14 10:24:15;;;;;;;24.90;14.55;;;;;;;-1.78;100.00;100675.80;1779652;80;21664;-58
2020/12/14 10:26:43;;;;;;;25.12;14.13;;;;;;;-1.75;100.00;100672.22;1783115;80;21145;-58
2020/12/14 10:29:13;;;;;;;23.35;13.45;;;;;;;-1.73;100.00;100678.88;1782292;79;21157;-58
2020/12/14 10:31:42;;;;;;;22.35;13.13;;;;;;;-1.72;100.00;100672.85;1782465;80;21177;-58
2020/12/14 10:34:12;;;;;;;21.45;13.53;;;;;;;-1.72;100.00;100672.03;1777809;78;21191;-57
2020/12/14 10:36:46;;;;;;;26.68;14.23;;;;;;;-1.73;100.00;100667.84;1781650;80;21096;-58
2020/12/14 10:39:14;;;;;;;23.27;13.43;;;;;;;-1.68;100.00;100662.45;1783304;79;21132;-58
2020/12/14 10:41:42;;;;;;;22.15;12.10;;;;;;;-1.63;100.00;100654.02;1782655;80;21033;-58
2020/12/14 10:44:10;;;;;;;21.62;13.00;;;;;;;-1.62;100.00;100655.69;1782758;80;21165;-59
2020/12/14 10:46:38;;;;;;;22.60;14.43;;;;;;;-1.60;100.00;100669.18;1782774;80;21386;-59
2020/12/14 10:49:07;;;;;;;21.55;12.23;;;;;;;-1.59;100.00;100666.98;1782330;79;21098;-58
2020/12/14 10:51:35;;;;;;;23.07;13.15;;;;;;;-1.57;100.00;100667.25;1778320;80;21206;-58
2020/12/14 10:54:03;;;;;;;19.62;12.98;;;;;;;-1.54;100.00;100679.86;1782500;78;21098;-59
2020/12/14 10:56:32;;;;;;;23.25;12.50;;;;;;;-1.52;100.00;100677.19;1782842;80;21112;-58
2020/12/14 10:59:01;;;;;;;23.25;14.00;;;;;;;-1.51;100.00;100678.86;1782776;79;22259;-60
2020/12/14 11:01:29;;;;;;;22.17;13.85;;;;;;;-1.52;100.00;100669.06;1782362;80;21025;-57
2020/12/14 11:03:58;;;;;;;20.00;12.45;;;;;;;-1.51;100.00;100668.63;1779862;80;21085;-58
2020/12/14 11:06:31;;;;;;;23.95;13.30;;;;;;;-1.51;100.00;100664.80;1782433;80;21104;-57
2020/12/14 11:08:59;;;;;;;21.07;12.30;;;;;;;-1.50;100.00;100664.69;1781607;79;21149;-58
2020/12/14 11:11:32;;;;;;;19.40;12.65;;;;;;;-1.49;100.00;100670.61;1782428;79;21147;-56
2020/12/14 11:14:00;;;;;;;27.77;14.60;;;;;;;-1.50;100.00;100664.69;1775600;79;21184;-60
2020/12/14 11:16:31;;;;;;;23.05;13.83;;;;;;;-1.50;100.00;100667.70;1779002;79;21224;-60
2020/12/14 11:19:00;;;;;;;22.55;14.05;;;;;;;-1.49;100.00;100673.17;1779578;80;21180;-59
2020/12/14 11:21:29;;;;;;;22.75;14.15;;;;;;;-1.51;100.00;100660.50;1780732;79;21268;-60
2020/12/14 11:23:57;;;;;;;26.05;15.35;;;;;;;-1.50;100.00;100661.31;1775834;79;21201;-60
2020/12/14 11:26:25;;;;;;;22.20;13.15;;;;;;;-1.51;100.00;100647.71;1772497;79;21105;-60
2020/12/14 11:28:53;;;;;;;20.52;13.03;;;;;;;-1.50;100.00;100649.81;1773750;80;21130;-60
2020/12/14 11:31:21;;;;;;;27.07;14.68;;;;;;;-1.52;100.00;100652.91;1783296;79;21010;-60
2020/12/14 11:33:50;;;;;;;32.58;16.95;;;;;;;-1.53;100.00;100643.60;1772521;80;21481;-59
2020/12/14 11:36:23;;;;;;;30.70;15.58;;;;;;;-1.53;100.00;100650.81;1782282;80;21291;-59